Time;durP1;ratioP1;P1;durP2;ratioP2;P2;SDS_P1;SDS_P2;PMS_P1;PMS_P2;Temp;Humidity;BMP_temperature;BMP_pressure;BME280_temperature;BME280_humidity;BME280_pressure;Samples;Min_cycle;Max_cycle;Signal;HPM_P1;HPM_P2
2021/03/26 00:02:16;;;;;;;18.00;7.37;;;;;;;3.51;45.17;100890.28;126339;1099;104439;-79
2021/03/26 00:04:45;;;;;;;20.50;7.80;;;;;;;3.47;45.50;100880.47;125633;1098;104284;-79
2021/03/26 00:07:13;;;;;;;22.03;7.77;;;;;;;3.45;45.52;100882.06;126191;1099;104644;-80
2021/03/26 00:09:43;;;;;;;19.77;7.37;;;;;;;3.42;44.77;100881.85;126345;1099;104143;-79
2021/03/26 00:12:15;;;;;;;22.33;7.80;;;;;;;3.39;45.41;100885.12;126327;1098;104235;-80
2021/03/26 00:14:47;;;;;;;19.13;7.00;;;;;;;3.35;45.36;100882.20;126182;1099;104182;-81
2021/03/26 00:17:16;;;;;;;22.00;7.87;;;;;;;3.32;45.37;100884.57;125458;1099;104172;-79
2021/03/26 00:19:46;;;;;;;24.03;7.90;;;;;;;3.29;45.12;100890.47;126348;1099;104171;-80
2021/03/26 00:22:19;;;;;;;19.67;7.03;;;;;;;3.26;45.43;100890.25;126351;1099;104172;-80
2021/03/26 00:24:48;;;;;;;20.03;7.93;;;;;;;3.22;45.97;100894.30;125378;1099;104140;-80
2021/03/26 00:27:20;;;;;;;22.73;7.87;;;;;;;3.19;45.65;100896.66;126328;1099;104182;-80
2021/03/26 00:29:50;;;;;;;20.27;7.20;;;;;;;3.15;45.56;100896.38;126360;1099;104210;-80
2021/03/26 00:32:23;;;;;;;20.03;7.30;;;;;;;3.11;45.88;100896.93;126382;1099;104181;-78
2021/03/26 00:34:58;;;;;;;19.40;7.27;;;;;;;3.06;44.94;100899.19;125454;1099;104201;-80
2021/03/26 00:37:29;;;;;;;21.47;8.17;;;;;;;3.00;45.63;100893.56;126229;1099;104224;-78
2021/03/26 00:40:01;;;;;;;24.27;8.37;;;;;;;2.97;45.31;100895.94;125414;1099;104191;-79
2021/03/26 00:42:30;;;;;;;17.20;7.20;;;;;;;2.93;45.47;100900.00;126348;1099;104165;-79
2021/03/26 00:45:04;;;;;;;20.00;7.57;;;;;;;2.91;46.03;100895.48;126349;1099;104210;-80
2021/03/26 00:47:35;;;;;;;21.83;8.37;;;;;;;2.87;45.59;100894.37;126333;1099;101967;-79
2021/03/26 00:50:10;;;;;;;19.77;7.13;;;;;;;2.85;45.48;100890.74;126375;1099;104146;-79
2021/03/26 00:52:44;;;;;;;19.60;7.40;;;;;;;2.79;45.75;100892.89;126263;1099;104300;-79
2021/03/26 00:55:25;;;;;;;20.77;8.10;;;;;;;2.75;45.63;100901.25;125459;1099;104319;-79
2021/03/26 00:57:54;;;;;;;19.77;7.60;;;;;;;2.69;45.63;100899.09;126392;1099;104184;-79
2021/03/26 01:00:26;;;;;;;20.53;7.47;;;;;;;2.65;46.02;100904.83;126411;1098;104194;-79
2021/03/26 01:02:56;;;;;;;19.83;8.00;;;;;;;2.59;45.46;100904.41;126348;1099;104220;-80
2021/03/26 01:05:30;;;;;;;18.50;7.60;;;;;;;2.52;46.30;100900.44;126041;1099;104149;-80
2021/03/26 01:07:58;;;;;;;18.42;7.78;;;;;;;2.47;46.34;100897.51;126389;1099;104143;-80
2021/03/26 01:10:32;;;;;;;20.27;8.07;;;;;;;2.41;45.88;100910.00;125372;1102;104176;-79
2021/03/26 01:13:02;;;;;;;21.00;8.10;;;;;;;2.36;46.50;100906.17;125386;1100;104195;-81
2021/03/26 01:15:35;;;;;;;18.97;7.77;;;;;;;2.32;46.40;100905.05;125289;1099;104335;-79
2021/03/26 01:18:10;;;;;;;22.17;8.60;;;;;;;2.27;46.31;100908.96;125327;1099;104159;-79
2021/03/26 01:20:42;;;;;;;20.87;8.27;;;;;;;2.25;46.10;100912.24;125321;1102;104605;-79
2021/03/26 01:23:11;;;;;;;22.20;8.13;;;;;;;2.20;46.40;100911.90;125305;1102;104273;-79
2021/03/26 01:25:42;;;;;;;19.70;8.13;;;;;;;2.17;46.31;100914.25;125287;1099;104169;-79
2021/03/26 01:28:25;;;;;;;21.90;7.73;;;;;;;2.11;46.28;100908.61;125315;1099;104258;-79
2021/03/26 01:31:15;;;;;;;20.87;8.07;;;;;;;2.08;46.72;100913.55;125249;1099;104287;-80
2021/03/26 01:33:47;;;;;;;20.20;8.47;;;;;;;2.06;46.56;100915.13;125357;1099;104627;-79
2021/03/26 01:36:17;;;;;;;21.60;7.73;;;;;;;2.02;47.05;100913.97;125312;1099;104306;-80
2021/03/26 01:38:47;;;;;;;21.83;8.27;;;;;;;2.01;46.71;100916.45;125360;1102;104210;-80
2021/03/26 01:41:28;;;;;;;20.73;7.67;;;;;;;1.98;47.02;100920.61;125482;1099;104290;-79
2021/03/26 01:43:57;;;;;;;20.73;7.20;;;;;;;1.97;47.06;100923.98;126338;1099;104181;-80
2021/03/26 01:46:27;;;;;;;20.50;7.17;;;;;;;1.95;47.01;100922.08;126281;1099;104220;-80
2021/03/26 01:49:01;;;;;;;18.63;7.63;;;;;;;1.94;47.13;100925.44;126303;1099;104624;-80
2021/03/26 01:51:41;;;;;;;17.77;7.40;;;;;;;1.90;47.10;100925.97;126311;1099;104144;-79
2021/03/26 01:54:25;;;;;;;20.43;8.03;;;;;;;1.88;47.57;100924.97;126220;1099;104204;-80
2021/03/26 01:56:58;;;;;;;18.30;7.40;;;;;;;1.88;47.39;100931.03;126314;1099;104325;-80
2021/03/26 01:59:41;;;;;;;21.30;8.13;;;;;;;1.87;47.33;100929.25;126270;1099;102076;-80
2021/03/26 02:02:26;;;;;;;20.35;8.00;;;;;;;1.84;47.59;100935.84;125346;1102;104290;-79
2021/03/26 02:05:29;;;;;;;22.03;7.97;;;;;;;1.78;47.82;100933.70;125345;1102;104156;-79
2021/03/26 02:08:14;;;;;;;23.83;9.23;;;;;;;1.73;47.67;100930.77;125127;1102;104564;-78
2021/03/26 02:10:52;;;;;;;25.73;9.27;;;;;;;1.68;47.54;100939.83;125252;1102;104185;-79
2021/03/26 02:13:26;;;;;;;22.50;8.67;;;;;;;1.65;47.35;100936.11;125263;1099;104149;-79
2021/03/26 02:15:58;;;;;;;21.40;8.67;;;;;;;1.60;47.55;100940.92;125320;1102;104149;-79
2021/03/26 02:18:32;;;;;;;24.57;8.93;;;;;;;1.56;47.87;100937.20;125380;1102;119105;-79
2021/03/26 02:21:05;;;;;;;20.97;8.60;;;;;;;1.55;47.83;100944.84;125272;1102;104239;-79
2021/03/26 02:23:37;;;;;;;19.67;7.63;;;;;;;1.47;47.68;100936.48;125348;1102;104396;-79
2021/03/26 02:26:18;;;;;;;21.63;8.43;;;;;;;1.44;47.54;100944.88;125288;1102;104858;-79
2021/03/26 02:28:50;;;;;;;21.43;8.20;;;;;;;1.40;47.87;100939.34;125313;1102;107375;-79
2021/03/26 02:31:31;;;;;;;21.30;8.43;;;;;;;1.38;47.74;100948.67;125261;1102;105060;-79
2021/03/26 02:34:01;;;;;;;23.33;8.80;;;;;;;1.33;48.05;100948.31;125947;1099;104143;-79
2021/03/26 02:36:45;;;;;;;22.40;8.43;;;;;;;1.31;47.95;100959.30;126303;1099;104322;-79
2021/03/26 02:39:32;;;;;;;22.60;8.83;;;;;;;1.26;48.24;100953.77;126136;1099;110755;-79
2021/03/26 02:42:10;;;;;;;23.33;8.57;;;;;;;1.22;48.13;100955.20;126367;1099;104621;-79
2021/03/26 02:44:56;;;;;;;21.73;8.27;;;;;;;1.18;48.14;100958.31;126286;1099;104168;-79
2021/03/26 02:47:39;;;;;;;19.67;7.60;;;;;;;1.15;48.33;100957.17;126228;1099;104152;-79
2021/03/26 02:50:28;;;;;;;22.30;8.47;;;;;;;1.11;48.50;100955.11;126355;1099;104178;-79
2021/03/26 02:53:00;;;;;;;21.20;8.23;;;;;;;1.07;47.99;100960.03;126307;1099;104146;-79
2021/03/26 02:55:37;;;;;;;22.83;8.40;;;;;;;1.05;48.29;100965.87;126397;1099;104223;-78
2021/03/26 02:58:13;;;;;;;20.63;8.07;;;;;;;1.02;48.44;100970.80;126427;1099;104150;-80
2021/03/26 03:00:48;;;;;;;22.63;8.87;;;;;;;1.01;48.60;100967.32;126186;1099;104146;-79
2021/03/26 03:03:22;;;;;;;20.93;7.90;;;;;;;0.96;48.70;100968.61;126421;1099;104146;-79
2021/03/26 03:06:07;;;;;;;16.83;6.90;;;;;;;0.94;48.37;100965.00;126371;1099;104175;-80
2021/03/26 03:08:58;;;;;;;21.60;8.43;;;;;;;0.89;48.68;100969.80;126261;1099;104328;-80
2021/03/26 03:11:32;;;;;;;20.17;7.70;;;;;;;0.88;48.95;100967.09;126325;1099;104707;-80
2021/03/26 03:14:22;;;;;;;26.57;8.90;;;;;;;0.87;49.02;100968.78;126302;1099;104203;-80
2021/03/26 03:17:01;;;;;;;23.13;8.57;;;;;;;0.87;49.23;100967.85;126287;1099;104169;-80
2021/03/26 03:19:45;;;;;;;23.97;8.63;;;;;;;0.84;49.06;100965.02;126158;1099;104208;-80
2021/03/26 03:22:20;;;;;;;22.27;8.10;;;;;;;0.84;49.03;100970.19;126355;1099;104319;-79
2021/03/26 03:24:49;;;;;;;21.07;8.83;;;;;;;0.81;49.14;100964.77;126325;1099;104169;-80
2021/03/26 03:27:37;;;;;;;20.50;8.63;;;;;;;0.78;49.34;100978.36;126354;1098;104174;-80
2021/03/26 03:30:27;;;;;;;23.97;8.90;;;;;;;0.77;49.30;100978.23;126308;1099;104198;-79
2021/03/26 03:33:10;;;;;;;23.00;9.60;;;;;;;0.75;49.17;100982.34;126240;1099;104334;-79
2021/03/26 03:35:55;;;;;;;22.60;9.07;;;;;;;0.73;49.50;100977.05;126272;1099;104210;-79
2021/03/26 03:38:35;;;;;;;20.83;8.47;;;;;;;0.72;49.22;100975.27;126253;1099;104268;-80
2021/03/26 03:41:09;;;;;;;21.77;8.87;;;;;;;0.69;49.11;100986.23;126213;1099;104201;-79
2021/03/26 03:43:50;;;;;;;24.17;9.70;;;;;;;0.67;50.01;100986.88;126341;1099;104159;-80
2021/03/26 03:46:25;;;;;;;21.53;8.50;;;;;;;0.67;49.55;100986.88;126293;1099;102407;-80
2021/03/26 03:49:19;;;;;;;21.90;8.03;;;;;;;0.65;50.33;100988.44;126206;1099;104204;-80
2021/03/26 03:51:57;;;;;;;20.07;8.27;;;;;;;0.63;50.12;100990.89;126260;1099;104275;-80
2021/03/26 03:54:31;;;;;;;21.80;8.43;;;;;;;0.64;50.23;100991.78;126285;1099;104360;-80
2021/03/26 03:57:02;;;;;;;;;;;;;;;0.64;50.11;100996.95;126354;1098;104271;-79
2021/03/26 03:59:37;;;;;;;23.50;7.93;;;;;;;0.62;50.23;100991.66;126237;1099;104163;-80
2021/03/26 04:02:19;;;;;;;21.67;8.67;;;;;;;0.60;49.68;101000.97;126284;1099;104153;-80
2021/03/26 04:04:57;;;;;;;21.90;8.63;;;;;;;0.58;49.71;100994.78;126230;1099;104434;-80
2021/03/26 04:07:34;;;;;;;23.70;8.97;;;;;;;0.54;50.43;100996.19;126179;1099;104265;-80
2021/03/26 04:10:09;;;;;;;23.93;8.47;;;;;;;0.52;50.42;101002.02;126273;1099;103995;-80
2021/03/26 04:12:43;;;;;;;23.77;9.13;;;;;;;0.52;50.11;100994.27;126247;1099;104277;-79
2021/03/26 04:15:23;;;;;;;21.00;8.97;;;;;;;0.53;50.22;101001.22;126304;1099;104226;-79
2021/03/26 04:18:03;;;;;;;21.50;7.50;;;;;;;0.56;49.82;100998.00;126266;1099;104194;-80
2021/03/26 04:20:48;;;;;;;23.43;9.10;;;;;;;0.56;50.65;101001.48;126163;1099;104165;-79
2021/03/26 04:23:27;;;;;;;23.23;9.20;;;;;;;0.58;50.04;101005.11;126313;1099;104150;-80
2021/03/26 04:26:15;;;;;;;19.60;8.20;;;;;;;0.60;50.21;101000.97;126339;1099;104146;-80
2021/03/26 04:29:07;;;;;;;22.47;7.67;;;;;;;0.62;50.40;101001.98;126343;1099;104149;-80
2021/03/26 04:31:51;;;;;;;21.60;8.60;;;;;;;0.62;50.85;100996.83;126292;1099;118207;-80
2021/03/26 04:34:20;;;;;;;22.93;8.07;;;;;;;0.64;50.21;100994.37;126250;1099;104300;-80
2021/03/26 04:36:59;;;;;;;20.63;7.87;;;;;;;0.63;50.39;101001.22;126293;1098;104211;-81
2021/03/26 04:39:41;;;;;;;24.63;8.58;;;;;;;0.64;50.63;100991.78;126322;1099;104152;-80
2021/03/26 04:42:19;;;;;;;22.07;8.40;;;;;;;0.68;50.25;101005.08;126174;1099;105888;-78
2021/03/26 04:44:57;;;;;;;22.20;7.60;;;;;;;0.71;50.34;101005.34;126291;1099;104271;-78
2021/03/26 04:47:45;;;;;;;23.13;8.60;;;;;;;0.75;50.38;101006.52;126196;1099;104146;-79
2021/03/26 04:50:36;;;;;;;19.25;7.67;;;;;;;0.80;50.43;101004.31;126121;1099;104566;-79
2021/03/26 04:53:16;;;;;;;23.00;8.23;;;;;;;0.82;50.38;101003.64;126284;1099;104220;-79
2021/03/26 04:55:53;;;;;;;20.83;7.97;;;;;;;0.86;50.90;101007.41;126302;1099;104281;-78
2021/03/26 04:58:47;;;;;;;22.07;8.50;;;;;;;0.89;50.67;101005.97;126297;1099;104287;-79
2021/03/26 05:01:40;;;;;;;21.62;7.92;;;;;;;0.95;50.94;101012.41;126220;1099;104280;-78
2021/03/26 05:04:15;;;;;;;20.10;7.63;;;;;;;0.98;50.56;101018.76;126270;1099;104213;-79
2021/03/26 05:06:47;;;;;;;21.57;8.50;;;;;;;1.04;50.95;101026.09;126214;1099;104242;-79
2021/03/26 05:09:19;;;;;;;24.50;8.63;;;;;;;1.11;50.84;101020.66;125306;1099;104169;-79
2021/03/26 05:12:11;;;;;;;25.87;9.27;;;;;;;1.19;50.85;101024.76;126013;1099;104155;-79
2021/03/26 05:14:46;;;;;;;22.17;8.37;;;;;;;1.26;50.81;101026.15;126211;1099;104166;-79
2021/03/26 05:17:22;;;;;;;23.23;8.17;;;;;;;1.33;50.95;101014.65;126266;1099;104324;-79
2021/03/26 05:20:10;;;;;;;20.13;7.93;;;;;;;1.41;50.64;101026.50;125271;1099;104201;-79
2021/03/26 05:23:06;;;;;;;22.95;7.60;;;;;;;1.48;50.84;101025.30;126054;1099;108216;-78
2021/03/26 05:26:00;;;;;;;25.37;9.40;;;;;;;1.57;50.98;101021.80;126216;1099;104278;-79
2021/03/26 05:28:46;;;;;;;22.77;8.10;;;;;;;1.66;50.73;101018.12;126138;1099;104207;-79
2021/03/26 05:31:34;;;;;;;21.10;8.20;;;;;;;1.76;50.62;101029.33;126136;1099;104284;-79
2021/03/26 05:34:13;;;;;;;22.00;8.13;;;;;;;1.87;50.78;101026.66;126026;1099;104148;-79
2021/03/26 05:37:00;;;;;;;24.40;9.17;;;;;;;1.98;50.91;101025.84;125943;1099;104143;-79
2021/03/26 05:39:58;;;;;;;22.63;8.23;;;;;;;2.06;50.74;101042.88;126040;1099;104297;-79
2021/03/26 05:42:51;;;;;;;19.60;7.30;;;;;;;2.15;50.67;101046.19;126046;1099;104243;-79
2021/03/26 05:45:41;;;;;;;26.65;8.00;;;;;;;2.26;51.15;101035.73;126073;1099;104149;-79
2021/03/26 05:48:42;;;;;;;22.30;7.90;;;;;;;2.37;50.85;101042.67;126177;1099;102317;-78
2021/03/26 05:51:52;;;;;;;24.37;8.03;;;;;;;2.45;50.63;101045.85;126184;1099;104210;-78
2021/03/26 05:54:34;;;;;;;20.17;8.50;;;;;;;2.53;51.15;101036.08;126083;1098;104210;-78
2021/03/26 05:57:18;;;;;;;22.03;8.80;;;;;;;2.61;50.64;101037.55;126068;1098;104169;-79
2021/03/26 06:00:10;;;;;;;19.97;8.20;;;;;;;2.69;50.98;101041.63;126196;1099;104146;-79
2021/03/26 06:03:15;;;;;;;21.15;8.50;;;;;;;2.80;50.95;101045.03;126060;1098;104322;-79
2021/03/26 06:06:24;;;;;;;22.80;8.97;;;;;;;2.90;50.96;101047.54;126167;1099;104152;-79
2021/03/26 06:09:41;;;;;;;22.83;8.33;;;;;;;3.03;51.21;101046.75;126233;1099;104165;-80
2021/03/26 06:12:55;;;;;;;25.57;9.43;;;;;;;3.14;50.97;101032.00;126058;1098;104371;-79
2021/03/26 06:16:08;;;;;;;27.20;9.90;;;;;;;3.29;50.46;101037.39;126128;1099;104198;-79
2021/03/26 06:19:16;;;;;;;27.83;8.90;;;;;;;3.41;51.05;101043.48;125857;1099;104208;-76
2021/03/26 06:22:23;;;;;;;24.43;8.57;;;;;;;3.56;50.73;101035.92;125936;1099;104194;-79
2021/03/26 06:25:37;;;;;;;21.63;9.00;;;;;;;3.70;50.87;101043.00;125903;1099;104307;-78
2021/03/26 06:28:20;;;;;;;25.92;9.28;;;;;;;3.83;50.90;101042.17;125367;1099;104165;-78
2021/03/26 06:31:06;;;;;;;26.73;9.00;;;;;;;3.96;50.50;101047.46;125810;1099;104294;-78
2021/03/26 06:34:19;;;;;;;23.83;8.40;;;;;;;4.10;50.57;101044.95;125769;1099;104667;-78
2021/03/26 06:37:12;;;;;;;22.07;9.00;;;;;;;4.24;50.90;101045.88;125730;1099;104165;-78
2021/03/26 06:39:55;;;;;;;27.60;10.23;;;;;;;4.38;50.89;101041.65;125776;1099;104302;-78
2021/03/26 06:42:41;;;;;;;24.20;8.75;;;;;;;4.52;50.63;101048.72;125726;1099;105716;-78
2021/03/26 06:45:38;;;;;;;21.07;8.37;;;;;;;4.62;50.71;101053.73;125860;1099;104165;-78
2021/03/26 06:48:28;;;;;;;24.90;8.70;;;;;;;4.74;50.17;101047.59;125818;1099;104299;-77
2021/03/26 06:51:21;;;;;;;22.10;7.80;;;;;;;4.84;50.10;101056.09;125919;1099;104152;-78
2021/03/26 06:54:07;;;;;;;25.03;8.87;;;;;;;4.99;50.28;101064.03;125818;1099;104306;-78
2021/03/26 06:57:05;;;;;;;22.37;9.43;;;;;;;5.13;49.86;101054.55;125908;1099;104143;-79
2021/03/26 06:59:49;;;;;;;22.43;9.60;;;;;;;5.28;49.84;101049.44;125878;1099;104248;-78
2021/03/26 07:02:46;;;;;;;23.83;9.13;;;;;;;5.42;50.00;101052.95;125679;1099;104270;-79
2021/03/26 07:05:39;;;;;;;24.20;9.37;;;;;;;5.57;50.20;101047.84;126019;1099;108217;-78
2021/03/26 07:08:37;;;;;;;25.67;9.57;;;;;;;5.70;50.02;101055.66;125993;1099;104157;-78
2021/03/26 07:11:24;;;;;;;23.60;9.30;;;;;;;5.88;49.74;101057.63;125994;1098;104162;-79
2021/03/26 07:14:11;;;;;;;23.57;9.43;;;;;;;6.05;49.68;101062.22;125940;1099;104277;-79
2021/03/26 07:17:02;;;;;;;26.50;9.57;;;;;;;6.24;49.60;101064.27;125976;1099;104197;-78
2021/03/26 07:19:50;;;;;;;23.13;9.57;;;;;;;6.42;49.51;101067.12;125961;1099;104157;-79
2021/03/26 07:22:52;;;;;;;25.40;9.00;;;;;;;6.58;49.27;101061.13;125883;1099;104169;-79
2021/03/26 07:25:31;;;;;;;25.43;10.20;;;;;;;6.82;49.36;101066.94;126049;1099;104704;-80
2021/03/26 07:28:25;;;;;;;25.43;9.17;;;;;;;7.05;49.39;101059.55;126105;1099;104159;-79
2021/03/26 07:31:17;;;;;;;23.43;8.93;;;;;;;7.28;49.37;101065.23;126020;1099;104192;-78
2021/03/26 07:33:52;;;;;;;21.73;8.67;;;;;;;7.48;49.10;101067.27;125967;1099;104204;-78
2021/03/26 07:36:47;;;;;;;23.83;8.20;;;;;;;7.60;49.02;101059.20;125329;1099;104172;-79
2021/03/26 07:39:29;;;;;;;;;;;;;;;7.74;48.52;101065.22;126156;1099;104251;-80
2021/03/26 07:42:20;;;;;;;22.07;8.77;;;;;;;7.88;48.69;101066.91;126022;1099;104200;-79
2021/03/26 07:45:12;;;;;;;20.27;8.87;;;;;;;8.02;48.49;101064.14;125199;1099;104156;-79
2021/03/26 07:48:02;;;;;;;21.67;9.37;;;;;;;8.15;48.43;101060.47;125405;1099;104160;-79
2021/03/26 07:50:50;;;;;;;25.60;9.30;;;;;;;8.32;48.77;101069.23;125158;1099;104252;-80
2021/03/26 07:53:39;;;;;;;22.30;9.17;;;;;;;8.44;48.62;101070.81;125044;1099;103649;-79
2021/03/26 07:56:27;;;;;;;22.30;8.43;;;;;;;8.54;48.59;101068.69;125005;1102;104220;-81
2021/03/26 07:59:30;;;;;;;21.27;8.80;;;;;;;8.66;47.94;101071.95;125107;1102;104239;-79
2021/03/26 08:02:21;;;;;;;22.93;9.03;;;;;;;8.79;47.75;101063.94;125098;1102;104169;-79
2021/03/26 08:05:05;;;;;;;24.77;9.10;;;;;;;8.94;47.77;101068.16;125098;1102;104172;-80
2021/03/26 08:07:57;;;;;;;23.95;9.05;;;;;;;9.03;46.80;101066.02;125051;1099;104147;-79
2021/03/26 08:10:36;;;;;;;19.73;7.20;;;;;;;9.16;46.80;101072.76;125167;1099;104181;-79
2021/03/26 08:13:29;;;;;;;14.93;6.27;;;;;;;9.26;46.60;101074.14;125081;1099;104172;-80
2021/03/26 08:16:17;;;;;;;16.23;5.90;;;;;;;9.35;45.88;101070.25;125026;1099;104612;-79
2021/03/26 08:19:00;;;;;;;16.47;6.23;;;;;;;9.47;46.07;101066.44;125105;1099;104185;-80
2021/03/26 08:21:46;;;;;;;20.10;5.60;;;;;;;9.44;37.86;101084.63;125302;1099;104375;-79
2021/03/26 08:24:46;;;;;;;15.50;5.93;;;;;;;9.45;44.05;101078.57;125807;1099;104937;-79
2021/03/26 08:27:26;;;;;;;17.17;6.17;;;;;;;9.47;44.83;101059.50;125287;1102;111902;-81
2021/03/26 08:30:14;;;;;;;15.40;6.17;;;;;;;9.52;44.17;101064.93;125206;1099;104123;-80
2021/03/26 08:33:03;;;;;;;15.67;6.13;;;;;;;9.55;44.11;101075.56;125744;1099;104210;-80
2021/03/26 08:36:15;;;;;;;17.33;6.50;;;;;;;9.57;44.16;101068.70;125969;1099;104277;-78
2021/03/26 08:39:06;;;;;;;17.90;6.87;;;;;;;9.67;44.18;101080.52;125041;1102;104204;-79
2021/03/26 08:41:45;;;;;;;14.53;6.10;;;;;;;9.68;44.00;101066.59;125128;1102;104191;-80
2021/03/26 08:44:20;;;;;;;15.90;6.47;;;;;;;9.76;43.67;101080.07;125183;1102;104137;-80
2021/03/26 08:46:55;;;;;;;20.20;7.20;;;;;;;9.83;42.93;101076.90;125082;1102;104238;-79
2021/03/26 08:49:39;;;;;;;16.33;6.80;;;;;;;9.90;43.67;101082.52;125009;1103;104220;-79
2021/03/26 08:52:30;;;;;;;18.97;7.67;;;;;;;9.99;43.65;101084.69;125171;1103;102098;-80
2021/03/26 08:55:32;;;;;;;15.33;5.97;;;;;;;10.08;42.08;101085.13;125203;1102;104255;-80
2021/03/26 08:58:31;;;;;;;16.90;6.60;;;;;;;10.11;42.42;101083.45;125158;1102;106515;-79
2021/03/26 09:01:24;;;;;;;13.17;5.57;;;;;;;10.20;42.56;101083.89;125109;1102;104396;-79
2021/03/26 09:04:10;;;;;;;15.50;5.97;;;;;;;10.25;42.17;101080.66;125110;1102;104194;-80
2021/03/26 09:06:58;;;;;;;15.23;6.17;;;;;;;10.35;42.00;101094.23;125055;1102;104288;-80
2021/03/26 09:09:49;;;;;;;16.40;6.37;;;;;;;10.38;41.73;101087.40;125089;1102;104213;-80
2021/03/26 09:12:38;;;;;;;16.03;6.23;;;;;;;10.43;41.44;101092.86;125064;1102;104315;-79
2021/03/26 09:15:34;;;;;;;16.80;5.97;;;;;;;10.47;41.28;101088.63;125548;1099;104251;-79
2021/03/26 09:18:17;;;;;;;13.00;5.50;;;;;;;10.51;39.58;101098.45;126084;1099;104127;-79
2021/03/26 09:20:57;;;;;;;12.33;5.42;;;;;;;10.43;38.11;101096.36;125131;1102;104628;-78
2021/03/26 09:23:48;;;;;;;15.10;5.43;;;;;;;10.42;39.97;101083.17;124999;1102;104472;-79
2021/03/26 09:26:40;;;;;;;11.50;4.90;;;;;;;10.40;37.38;101082.22;125083;1102;104283;-79
2021/03/26 09:29:14;;;;;;;16.13;5.50;;;;;;;10.39;38.74;101085.66;125245;1102;117812;-79
2021/03/26 09:31:51;;;;;;;14.75;6.00;;;;;;;10.45;38.31;101087.68;125157;1102;102158;-80
2021/03/26 09:34:29;;;;;;;13.17;5.80;;;;;;;10.53;38.17;101084.59;125178;1102;104293;-79
2021/03/26 09:37:15;;;;;;;13.90;5.47;;;;;;;10.58;38.55;101084.77;125180;1102;104179;-80
2021/03/26 09:39:49;;;;;;;13.23;5.30;;;;;;;10.52;37.04;101090.66;125072;1102;104165;-80
2021/03/26 09:42:47;;;;;;;16.47;5.30;;;;;;;10.59;37.76;101076.07;125058;1100;104329;-80
2021/03/26 09:45:29;;;;;;;15.27;5.10;;;;;;;10.64;37.39;101084.15;125089;1102;104305;-79
2021/03/26 09:48:19;;;;;;;10.80;4.90;;;;;;;10.68;37.96;101081.73;125124;1099;104392;-79
2021/03/26 09:51:00;;;;;;;13.53;5.23;;;;;;;10.74;36.73;101103.00;125063;1102;104227;-80
2021/03/26 09:53:38;;;;;;;14.10;5.30;;;;;;;10.73;37.54;101080.20;125141;1099;104286;-80
2021/03/26 09:56:25;;;;;;;14.17;5.77;;;;;;;10.77;37.71;101074.27;126179;1099;104316;-80
2021/03/26 09:59:12;;;;;;;15.43;5.63;;;;;;;10.89;35.81;101100.17;125643;1099;104328;-78
2021/03/26 10:02:03;;;;;;;13.20;5.80;;;;;;;10.89;36.56;101073.00;125948;1099;104289;-80
2021/03/26 10:04:55;;;;;;;14.80;5.50;;;;;;;10.93;36.77;101075.83;126067;1098;104737;-78
2021/03/26 10:07:38;;;;;;;14.23;6.20;;;;;;;10.99;37.29;101059.45;125778;1099;104353;-79
2021/03/26 10:12:58;;;;;;;16.07;5.80;;;;;;;11.14;36.69;101062.73;125801;1099;104165;-78
2021/03/26 10:15:41;;;;;;;14.60;5.80;;;;;;;11.25;37.13;101060.56;125699;1099;104192;-78
2021/03/26 10:18:16;;;;;;;14.30;5.83;;;;;;;11.31;35.80;101063.44;125825;1099;104300;-80
2021/03/26 10:20:53;;;;;;;12.80;5.23;;;;;;;11.33;35.00;101066.13;125708;1099;104188;-81
2021/03/26 10:23:37;;;;;;;13.77;5.63;;;;;;;11.32;35.11;101054.70;125686;1099;104412;-80
2021/03/26 10:26:12;;;;;;;13.60;5.45;;;;;;;11.32;35.43;101045.94;125812;1099;104294;-80
2021/03/26 10:29:00;;;;;;;15.80;6.10;;;;;;;11.42;35.80;101042.86;125616;1099;104165;-81
2021/03/26 10:31:36;;;;;;;14.23;5.57;;;;;;;11.51;35.31;101047.58;125634;1099;104206;-76
2021/03/26 10:34:11;;;;;;;13.67;6.07;;;;;;;11.56;35.17;101050.39;125751;1099;104178;-77
2021/03/26 10:36:49;;;;;;;17.13;6.13;;;;;;;11.56;34.88;101050.39;125825;1099;104325;-76
2021/03/26 10:39:23;;;;;;;15.13;6.27;;;;;;;11.55;34.98;101045.99;125787;1099;104341;-76
2021/03/26 10:42:08;;;;;;;13.90;6.25;;;;;;;11.57;34.70;101047.83;125674;1099;104197;-78
2021/03/26 10:44:47;;;;;;;15.57;6.27;;;;;;;11.60;34.13;101045.33;125673;1099;104216;-77
2021/03/26 10:47:28;;;;;;;16.00;6.87;;;;;;;11.62;34.70;101048.02;125793;1099;104205;-80
2021/03/26 10:50:02;;;;;;;16.50;6.43;;;;;;;11.59;34.01;101045.27;125304;1099;105513;-81
2021/03/26 10:52:34;;;;;;;;;;;;;;;11.63;33.33;101045.45;125012;1099;104217;-79
2021/03/26 10:55:11;;;;;;;15.17;6.00;;;;;;;11.73;34.30;101046.70;125822;1099;104270;-79
2021/03/26 10:57:47;;;;;;;16.93;6.67;;;;;;;11.82;34.67;101047.06;125814;1099;104171;-79
2021/03/26 11:00:29;;;;;;;20.73;7.00;;;;;;;11.82;35.31;101039.17;125569;1099;104354;-81
2021/03/26 11:03:04;;;;;;;16.13;6.20;;;;;;;11.82;35.45;101035.66;125641;1098;104288;-81
2021/03/26 11:05:56;;;;;;;16.33;6.13;;;;;;;11.85;35.40;101036.67;125572;1099;104207;-81
2021/03/26 11:08:43;;;;;;;14.67;5.90;;;;;;;11.95;35.50;101021.28;125612;1099;104210;-80
2021/03/26 11:11:33;;;;;;;15.23;5.60;;;;;;;12.02;35.24;101032.09;125670;1099;110331;-80
2021/03/26 11:14:23;;;;;;;12.50;5.20;;;;;;;12.08;34.63;101028.81;125619;1099;104185;-76
2021/03/26 11:17:09;;;;;;;13.30;5.27;;;;;;;12.07;34.20;101026.13;125671;1099;104165;-77
2021/03/26 11:19:58;;;;;;;13.57;4.90;;;;;;;12.14;34.23;101025.50;125641;1099;104152;-76
2021/03/26 11:26:45;;;;;;;13.73;5.50;;;;;;;12.14;34.12;101018.53;124907;1102;104255;-77
2021/03/26 11:29:44;;;;;;;18.27;5.80;;;;;;;12.17;34.21;101009.83;124843;1102;104290;-77
2021/03/26 11:32:29;;;;;;;14.07;5.40;;;;;;;12.19;33.77;101022.22;125024;1102;104219;-76
2021/03/26 11:35:05;;;;;;;15.57;5.93;;;;;;;12.22;32.02;101005.66;125039;1102;104325;-76
2021/03/26 11:37:43;;;;;;;14.27;6.27;;;;;;;12.31;34.21;101010.34;125025;1102;104207;-77
2021/03/26 11:40:20;;;;;;;14.70;5.50;;;;;;;12.39;34.20;101008.91;124945;1102;104255;-77
2021/03/26 11:43:14;;;;;;;;;;;;;;;;;;;;;
2021/03/26 11:46:06;;;;;;;15.10;5.50;;;;;;;12.52;33.74;101021.66;124973;1102;103083;-76
2021/03/26 11:48:45;;;;;;;15.63;5.73;;;;;;;12.52;33.06;101005.86;125020;1102;104236;-76
2021/03/26 11:51:24;;;;;;;14.40;6.30;;;;;;;12.48;33.60;100998.72;125065;1102;104222;-80
2021/03/26 11:54:10;;;;;;;16.60;5.67;;;;;;;12.52;33.60;101007.61;125049;1102;104335;-79
2021/03/26 11:56:56;;;;;;;16.83;6.10;;;;;;;12.52;33.13;100986.55;125132;1102;104309;-77
2021/03/26 11:59:51;;;;;;;13.20;5.73;;;;;;;12.50;33.24;100975.09;125036;1102;104338;-76
2021/03/26 12:02:47;;;;;;;15.50;6.13;;;;;;;12.53;33.48;100983.09;125245;1099;108100;-77
2021/03/26 12:05:28;;;;;;;13.93;5.30;;;;;;;12.62;32.51;100991.31;125842;1099;104174;-75
2021/03/26 12:08:05;;;;;;;11.53;5.13;;;;;;;12.65;32.26;100979.97;125710;1098;105643;-77
2021/03/26 12:10:39;;;;;;;13.70;5.00;;;;;;;12.61;33.07;100967.56;125779;1099;104288;-76
2021/03/26 12:13:20;;;;;;;12.20;4.83;;;;;;;12.56;32.64;100967.41;125953;1099;104201;-77
2021/03/26 12:16:06;;;;;;;12.53;5.10;;;;;;;12.62;31.91;100974.59;125831;1099;104297;-77
2021/03/26 12:18:48;;;;;;;14.17;5.43;;;;;;;12.67;32.71;100971.30;125036;1102;104389;-79
2021/03/26 12:21:31;;;;;;;14.17;5.77;;;;;;;12.67;32.19;100968.66;125033;1102;104345;-78
2021/03/26 12:24:08;;;;;;;;;;;;;;;12.67;31.52;100967.75;125092;1099;104332;-77
2021/03/26 12:26:44;;;;;;;13.70;5.60;;;;;;;12.68;32.01;100965.17;124988;1102;104300;-77
2021/03/26 12:29:27;;;;;;;13.63;5.27;;;;;;;12.64;31.17;100941.34;125022;1102;104341;-79